sensor_id;sensor_type;location;lat;lon;timestamp;temperature;humidity
57030;DHT22;42920;45.306;20.448;2024-02-16T00:01:41;153.90;2252.80
57030;DHT22;42920;45.306;20.448;2024-02-16T00:04:06;153.70;2252.80
57030;DHT22;42920;45.306;20.448;2024-02-16T00:06:32;153.60;2252.80
57030;DHT22;42920;45.306;20.448;2024-02-16T00:08:59;128.90;2252.80
57030;DHT22;42920;45.306;20.448;2024-02-16T00:11:25;128.70;2252.80
57030;DHT22;42920;45.306;20.448;2024-02-16T00:13:50;128.80;2252.80
57030;DHT22;42920;45.306;20.448;2024-02-16T00:16:16;128.80;2252.80
57030;DHT22;42920;45.306;20.448;2024-02-16T00:18:43;128.90;2252.80
57030;DHT22;42920;45.306;20.448;2024-02-16T00:21:08;128.60;2252.80
57030;DHT22;42920;45.306;20.448;2024-02-16T00:23:34;128.50;2252.80
57030;DHT22;42920;45.306;20.448;2024-02-16T00:26:00;128.60;2252.80
57030;DHT22;42920;45.306;20.448;2024-02-16T00:28:26;128.80;2252.80
57030;DHT22;42920;45.306;20.448;2024-02-16T00:30:52;128.90;2252.80
57030;DHT22;42920;45.306;20.448;2024-02-16T00:33:17;128.60;2252.80
57030;DHT22;42920;45.306;20.448;2024-02-16T00:35:44;128.60;2252.80
57030;DHT22;42920;45.306;20.448;2024-02-16T00:38:10;128.60;2252.80
57030;DHT22;42920;45.306;20.448;2024-02-16T00:40:35;128.80;2252.80
57030;DHT22;42920;45.306;20.448;2024-02-16T00:43:03;128.90;2252.80
57030;DHT22;42920;45.306;20.448;2024-02-16T00:45:28;128.90;2252.80
57030;DHT22;42920;45.306;20.448;2024-02-16T00:47:54;153.70;2252.80
57030;DHT22;42920;45.306;20.448;2024-02-16T00:50:20;153.90;2252.80
57030;DHT22;42920;45.306;20.448;2024-02-16T00:52:45;153.90;2252.80
57030;DHT22;42920;45.306;20.448;2024-02-16T00:55:11;153.80;2252.80
57030;DHT22;42920;45.306;20.448;2024-02-16T00:57:38;153.90;2252.80
57030;DHT22;42920;45.306;20.448;2024-02-16T01:00:04;153.90;2252.80
57030;DHT22;42920;45.306;20.448;2024-02-16T01:02:29;153.90;2252.80
57030;DHT22;42920;45.306;20.448;2024-02-16T01:04:57;153.80;2252.80
57030;DHT22;42920;45.306;20.448;2024-02-16T01:07:27;153.80;2252.80
57030;DHT22;42920;45.306;20.448;2024-02-16T01:09:53;153.80;2252.80
57030;DHT22;42920;45.306;20.448;2024-02-16T01:12:18;153.90;2252.80
57030;DHT22;42920;45.306;20.448;2024-02-16T01:14:44;154.00;2252.80
57030;DHT22;42920;45.306;20.448;2024-02-16T01:17:09;154.00;2252.80
57030;DHT22;42920;45.306;20.448;2024-02-16T01:19:35;154.00;2252.80
57030;DHT22;42920;45.306;20.448;2024-02-16T01:22:01;154.00;2252.80
57030;DHT22;42920;45.306;20.448;2024-02-16T01:24:26;154.10;2252.80
57030;DHT22;42920;45.306;20.448;2024-02-16T01:26:52;154.00;2252.80
57030;DHT22;42920;45.306;20.448;2024-02-16T01:29:17;154.10;2252.80
57030;DHT22;42920;45.306;20.448;2024-02-16T01:31:43;154.10;2252.80
57030;DHT22;42920;45.306;20.448;2024-02-16T01:34:09;154.10;2252.80
57030;DHT22;42920;45.306;20.448;2024-02-16T01:36:34;154.10;2252.80
57030;DHT22;42920;45.306;20.448;2024-02-16T01:39:00;154.20;2252.80
57030;DHT22;42920;45.306;20.448;2024-02-16T01:41:25;154.10;2252.80
57030;DHT22;42920;45.306;20.448;2024-02-16T01:43:54;154.20;2252.80
57030;DHT22;42920;45.306;20.448;2024-02-16T01:46:22;154.30;2252.80
57030;DHT22;42920;45.306;20.448;2024-02-16T01:48:48;154.20;2252.80
57030;DHT22;42920;45.306;20.448;2024-02-16T01:51:15;154.30;2252.80
57030;DHT22;42920;45.306;20.448;2024-02-16T01:53:41;154.30;2252.80
57030;DHT22;42920;45.306;20.448;2024-02-16T01:56:06;154.30;2252.80
57030;DHT22;42920;45.306;20.448;2024-02-16T01:58:33;154.20;2252.80
57030;DHT22;42920;45.306;20.448;2024-02-16T02:00:58;154.20;2252.80
57030;DHT22;42920;45.306;20.448;2024-02-16T02:03:24;154.20;2252.80
57030;DHT22;42920;45.306;20.448;2024-02-16T02:05:50;154.10;2252.80
57030;DHT22;42920;45.306;20.448;2024-02-16T02:08:16;154.10;2252.80
57030;DHT22;42920;45.306;20.448;2024-02-16T02:10:42;154.10;2252.80
57030;DHT22;42920;45.306;20.448;2024-02-16T02:13:08;154.10;2252.80
57030;DHT22;42920;45.306;20.448;2024-02-16T02:21:34;128.40;2252.80
57030;DHT22;42920;45.306;20.448;2024-02-16T02:24:00;128.30;2252.80
57030;DHT22;42920;45.306;20.448;2024-02-16T02:26:26;128.30;2252.80
57030;DHT22;42920;45.306;20.448;2024-02-16T02:28:51;128.40;2252.80
57030;DHT22;42920;45.306;20.448;2024-02-16T02:31:17;128.40;2252.80
57030;DHT22;42920;45.306;20.448;2024-02-16T02:33:42;128.20;2252.80
57030;DHT22;42920;45.306;20.448;2024-02-16T02:36:08;128.10;2252.80
57030;DHT22;42920;45.306;20.448;2024-02-16T02:38:33;128.20;2252.80
57030;DHT22;42920;45.306;20.448;2024-02-16T02:41:00;103.30;2227.20
57030;DHT22;42920;45.306;20.448;2024-02-16T02:43:25;103.20;2227.20
57030;DHT22;42920;45.306;20.448;2024-02-16T02:45:51;103.00;2227.20
57030;DHT22;42920;45.306;20.448;2024-02-16T02:48:17;103.10;2227.20
57030;DHT22;42920;45.306;20.448;2024-02-16T02:50:43;103.20;2227.20
57030;DHT22;42920;45.306;20.448;2024-02-16T02:53:09;102.80;2227.20
57030;DHT22;42920;45.306;20.448;2024-02-16T02:55:34;102.90;2227.20
57030;DHT22;42920;45.306;20.448;2024-02-16T02:58:00;102.60;2227.20
57030;DHT22;42920;45.306;20.448;2024-02-16T03:00:25;102.60;2227.20
57030;DHT22;42920;45.306;20.448;2024-02-16T03:02:51;102.80;2227.20
57030;DHT22;42920;45.306;20.448;2024-02-16T03:05:16;102.80;2227.20
57030;DHT22;42920;45.306;20.448;2024-02-16T03:07:44;102.70;2227.20
57030;DHT22;42920;45.306;20.448;2024-02-16T03:10:10;102.80;2227.20
57030;DHT22;42920;45.306;20.448;2024-02-16T03:12:36;103.00;2227.20
57030;DHT22;42920;45.306;20.448;2024-02-16T03:15:01;103.10;2227.20
57030;DHT22;42920;45.306;20.448;2024-02-16T03:17:27;102.90;2227.20
57030;DHT22;42920;45.306;20.448;2024-02-16T03:19:53;103.00;2227.20
57030;DHT22;42920;45.306;20.448;2024-02-16T03:22:18;102.90;2227.20
57030;DHT22;42920;45.306;20.448;2024-02-16T03:24:44;103.00;2227.20
57030;DHT22;42920;45.306;20.448;2024-02-16T03:27:10;103.10;2227.20
57030;DHT22;42920;45.306;20.448;2024-02-16T03:29:36;103.30;2227.20
57030;DHT22;42920;45.306;20.448;2024-02-16T03:32:01;103.30;2227.20
57030;DHT22;42920;45.306;20.448;2024-02-16T03:34:27;103.30;2227.20
57030;DHT22;42920;45.306;20.448;2024-02-16T03:36:53;128.10;2252.80
57030;DHT22;42920;45.306;20.448;2024-02-16T03:39:19;128.00;2252.80
57030;DHT22;42920;45.306;20.448;2024-02-16T03:41:45;103.20;2227.20
57030;DHT22;42920;45.306;20.448;2024-02-16T03:44:14;102.90;2227.20
57030;DHT22;42920;45.306;20.448;2024-02-16T03:46:41;102.80;2227.20
57030;DHT22;42920;45.306;20.448;2024-02-16T03:49:07;102.60;2227.20
57030;DHT22;42920;45.306;20.448;2024-02-16T03:51:33;102.50;2227.20
57030;DHT22;42920;45.306;20.448;2024-02-16T03:53:58;102.40;2227.20
57030;DHT22;42920;45.306;20.448;2024-02-16T03:56:24;102.40;2227.20
57030;DHT22;42920;45.306;20.448;2024-02-16T03:58:50;102.40;2227.20
57030;DHT22;42920;45.306;20.448;2024-02-16T04:01:15;102.60;2227.20
57030;DHT22;42920;45.306;20.448;2024-02-16T04:03:41;102.50;2227.20
57030;DHT22;42920;45.306;20.448;2024-02-16T04:06:07;102.50;2227.20
57030;DHT22;42920;45.306;20.448;2024-02-16T04:08:33;102.40;2227.20
57030;DHT22;42920;45.306;20.448;2024-02-16T04:10:59;102.50;2227.20
57030;DHT22;42920;45.306;20.448;2024-02-16T04:13:24;77.70;2227.20
57030;DHT22;42920;45.306;20.448;2024-02-16T04:15:50;102.50;2227.20
57030;DHT22;42920;45.306;20.448;2024-02-16T04:18:16;102.40;2227.20
57030;DHT22;42920;45.306;20.448;2024-02-16T04:20:41;77.70;2227.20
57030;DHT22;42920;45.306;20.448;2024-02-16T04:23:07;77.60;2227.20
57030;DHT22;42920;45.306;20.448;2024-02-16T04:25:33;77.50;2227.20
57030;DHT22;42920;45.306;20.448;2024-02-16T04:27:59;77.40;2227.20
57030;DHT22;42920;45.306;20.448;2024-02-16T04:30:24;77.20;2227.20
57030;DHT22;42920;45.306;20.448;2024-02-16T04:32:50;77.20;2227.20
57030;DHT22;42920;45.306;20.448;2024-02-16T04:35:16;77.20;2227.20
57030;DHT22;42920;45.306;20.448;2024-02-16T04:37:42;77.10;2227.20
57030;DHT22;42920;45.306;20.448;2024-02-16T04:40:08;77.00;2227.20
57030;DHT22;42920;45.306;20.448;2024-02-16T04:42:33;77.00;2227.20
57030;DHT22;42920;45.306;20.448;2024-02-16T04:44:59;77.00;2227.20
57030;DHT22;42920;45.306;20.448;2024-02-16T04:47:25;77.10;2227.20
57030;DHT22;42920;45.306;20.448;2024-02-16T04:49:51;77.00;2227.20
57030;DHT22;42920;45.306;20.448;2024-02-16T04:52:16;76.90;2227.20
57030;DHT22;42920;45.306;20.448;2024-02-16T04:54:42;76.90;2227.20
57030;DHT22;42920;45.306;20.448;2024-02-16T04:57:07;77.10;2227.20
57030;DHT22;42920;45.306;20.448;2024-02-16T04:59:33;77.20;2227.20
57030;DHT22;42920;45.306;20.448;2024-02-16T05:01:59;77.20;2227.20
57030;DHT22;42920;45.306;20.448;2024-02-16T05:04:24;77.20;2227.20
57030;DHT22;42920;45.306;20.448;2024-02-16T05:06:50;77.20;2227.20
57030;DHT22;42920;45.306;20.448;2024-02-16T05:09:17;77.10;2227.20
57030;DHT22;42920;45.306;20.448;2024-02-16T05:11:44;77.10;2227.20
57030;DHT22;42920;45.306;20.448;2024-02-16T05:14:10;77.10;2227.20
57030;DHT22;42920;45.306;20.448;2024-02-16T05:16:37;77.00;2227.20
57030;DHT22;42920;45.306;20.448;2024-02-16T05:19:03;76.80;2227.20
57030;DHT22;42920;45.306;20.448;2024-02-16T05:21:28;52.10;2227.20
57030;DHT22;42920;45.306;20.448;2024-02-16T05:23:54;52.00;2227.20
57030;DHT22;42920;45.306;20.448;2024-02-16T05:26:20;52.00;2227.20
57030;DHT22;42920;45.306;20.448;2024-02-16T05:28:46;52.10;2227.20
57030;DHT22;42920;45.306;20.448;2024-02-16T05:31:16;52.10;2227.20
57030;DHT22;42920;45.306;20.448;2024-02-16T05:33:46;76.90;2227.20
57030;DHT22;42920;45.306;20.448;2024-02-16T05:36:12;76.90;2227.20
57030;DHT22;42920;45.306;20.448;2024-02-16T05:38:41;77.00;2227.20
57030;DHT22;42920;45.306;20.448;2024-02-16T05:41:08;77.20;2227.20
57030;DHT22;42920;45.306;20.448;2024-02-16T05:43:34;77.20;2227.20
57030;DHT22;42920;45.306;20.448;2024-02-16T05:45:59;77.20;2227.20
57030;DHT22;42920;45.306;20.448;2024-02-16T05:48:26;77.30;2227.20
57030;DHT22;42920;45.306;20.448;2024-02-16T05:50:57;77.20;2227.20
57030;DHT22;42920;45.306;20.448;2024-02-16T05:53:25;76.90;2227.20
57030;DHT22;42920;45.306;20.448;2024-02-16T05:55:51;76.80;2227.20
57030;DHT22;42920;45.306;20.448;2024-02-16T05:58:16;76.80;2227.20
57030;DHT22;42920;45.306;20.448;2024-02-16T06:00:43;52.00;2227.20
57030;DHT22;42920;45.306;20.448;2024-02-16T06:03:08;52.00;2227.20
57030;DHT22;42920;45.306;20.448;2024-02-16T06:05:34;51.90;2227.20
57030;DHT22;42920;45.306;20.448;2024-02-16T06:08:00;51.90;2227.20
57030;DHT22;42920;45.306;20.448;2024-02-16T06:10:26;51.80;2227.20
57030;DHT22;42920;45.306;20.448;2024-02-16T06:12:51;51.90;2227.20
57030;DHT22;42920;45.306;20.448;2024-02-16T06:15:17;52.00;2227.20
57030;DHT22;42920;45.306;20.448;2024-02-16T06:17:43;52.10;2227.20
57030;DHT22;42920;45.306;20.448;2024-02-16T06:20:08;76.90;2227.20
57030;DHT22;42920;45.306;20.448;2024-02-16T06:22:37;76.90;2227.20
57030;DHT22;42920;45.306;20.448;2024-02-16T06:25:02;77.20;2227.20
57030;DHT22;42920;45.306;20.448;2024-02-16T06:27:28;77.50;2227.20
57030;DHT22;42920;45.306;20.448;2024-02-16T06:29:54;102.60;2227.20
57030;DHT22;42920;45.306;20.448;2024-02-16T06:32:19;103.00;2227.20
57030;DHT22;42920;45.306;20.448;2024-02-16T06:34:45;103.20;2227.20
57030;DHT22;42920;45.306;20.448;2024-02-16T06:37:11;128.20;2252.80
57030;DHT22;42920;45.306;20.448;2024-02-16T06:39:37;128.30;2252.80
57030;DHT22;42920;45.306;20.448;2024-02-16T06:42:02;128.40;2252.80
57030;DHT22;42920;45.306;20.448;2024-02-16T06:44:28;128.20;2252.80
57030;DHT22;42920;45.306;20.448;2024-02-16T06:46:54;128.30;2252.80
57030;DHT22;42920;45.306;20.448;2024-02-16T06:49:20;128.20;2252.80
57030;DHT22;42920;45.306;20.448;2024-02-16T06:51:45;128.40;2252.80
57030;DHT22;42920;45.306;20.448;2024-02-16T06:54:11;128.50;2252.80
57030;DHT22;42920;45.306;20.448;2024-02-16T06:56:37;128.70;2252.80
57030;DHT22;42920;45.306;20.448;2024-02-16T06:59:03;128.80;2252.80
57030;DHT22;42920;45.306;20.448;2024-02-16T07:01:29;128.70;2252.80
57030;DHT22;42920;45.306;20.448;2024-02-16T07:03:54;128.70;2252.80
57030;DHT22;42920;45.306;20.448;2024-02-16T07:06:20;128.90;2252.80
57030;DHT22;42920;45.306;20.448;2024-02-16T07:08:46;128.80;2252.80
57030;DHT22;42920;45.306;20.448;2024-02-16T07:11:12;153.60;2252.80
57030;DHT22;42920;45.306;20.448;2024-02-16T07:13:38;153.70;2252.80
57030;DHT22;42920;45.306;20.448;2024-02-16T07:16:04;153.80;2252.80
57030;DHT22;42920;45.306;20.448;2024-02-16T07:18:32;153.90;2252.80
57030;DHT22;42920;45.306;20.448;2024-02-16T07:20:58;153.90;2252.80
57030;DHT22;42920;45.306;20.448;2024-02-16T07:23:25;154.10;2252.80
57030;DHT22;42920;45.306;20.448;2024-02-16T07:25:50;153.60;2252.80
57030;DHT22;42920;45.306;20.448;2024-02-16T07:28:16;153.80;2252.80
57030;DHT22;42920;45.306;20.448;2024-02-16T07:30:42;153.70;2252.80
57030;DHT22;42920;45.306;20.448;2024-02-16T07:33:07;154.10;2252.80
57030;DHT22;42920;45.306;20.448;2024-02-16T07:35:33;154.00;2252.80
57030;DHT22;42920;45.306;20.448;2024-02-16T07:38:01;154.00;2252.80
57030;DHT22;42920;45.306;20.448;2024-02-16T07:40:27;154.10;2252.80
57030;DHT22;42920;45.306;20.448;2024-02-16T07:42:53;153.90;2252.80
57030;DHT22;42920;45.306;20.448;2024-02-16T07:45:19;154.40;2252.80
57030;DHT22;42920;45.306;20.448;2024-02-16T07:47:45;154.50;2252.80
57030;DHT22;42920;45.306;20.448;2024-02-16T07:50:10;179.30;2252.80
57030;DHT22;42920;45.306;20.448;2024-02-16T07:52:37;179.50;2252.80
57030;DHT22;42920;45.306;20.448;2024-02-16T07:55:03;179.80;2252.80
57030;DHT22;42920;45.306;20.448;2024-02-16T07:57:29;179.90;2252.80
57030;DHT22;42920;45.306;20.448;2024-02-16T07:59:56;179.90;2252.80
57030;DHT22;42920;45.306;20.448;2024-02-16T08:02:21;204.90;2252.80
57030;DHT22;42920;45.306;20.448;2024-02-16T08:04:48;205.10;2252.80
57030;DHT22;42920;45.306;20.448;2024-02-16T08:09:39;205.20;2252.80
57030;DHT22;42920;45.306;20.448;2024-02-16T08:12:05;205.60;2252.80
57030;DHT22;42920;45.306;20.448;2024-02-16T08:14:32;205.70;2252.80
57030;DHT22;42920;45.306;20.448;2024-02-16T08:16:58;230.40;2252.80
57030;DHT22;42920;45.306;20.448;2024-02-16T08:19:26;230.50;2252.80
57030;DHT22;42920;45.306;20.448;2024-02-16T08:21:56;230.60;2252.80
57030;DHT22;42920;45.306;20.448;2024-02-16T08:24:22;230.70;2252.80
57030;DHT22;42920;45.306;20.448;2024-02-16T08:26:47;230.70;2252.80
57030;DHT22;42920;45.306;20.448;2024-02-16T08:29:13;230.70;2252.80
57030;DHT22;42920;45.306;20.448;2024-02-16T08:31:38;230.70;2252.80
57030;DHT22;42920;45.306;20.448;2024-02-16T08:34:04;230.70;2252.80
57030;DHT22;42920;45.306;20.448;2024-02-16T08:36:32;230.80;2252.80
57030;DHT22;42920;45.306;20.448;2024-02-16T08:38:59;230.70;2252.80
57030;DHT22;42920;45.306;20.448;2024-02-16T08:41:25;230.80;2252.80
57030;DHT22;42920;45.306;20.448;2024-02-16T08:43:50;230.90;2252.80
57030;DHT22;42920;45.306;20.448;2024-02-16T08:46:16;230.90;2252.80
57030;DHT22;42920;45.306;20.448;2024-02-16T08:48:43;231.00;2252.80
57030;DHT22;42920;45.306;20.448;2024-02-16T08:51:11;231.10;2252.80
57030;DHT22;42920;45.306;20.448;2024-02-16T08:53:36;231.20;2252.80
57030;DHT22;42920;45.306;20.448;2024-02-16T08:56:02;256.00;2252.80
57030;DHT22;42920;45.306;20.448;2024-02-16T08:58:28;256.10;2252.80
57030;DHT22;42920;45.306;20.448;2024-02-16T09:00:53;256.30;2252.80
57030;DHT22;42920;45.306;20.448;2024-02-16T09:03:19;256.50;2252.80
57030;DHT22;42920;45.306;20.448;2024-02-16T09:05:45;256.50;2252.80
57030;DHT22;42920;45.306;20.448;2024-02-16T09:08:11;256.60;2252.80
57030;DHT22;42920;45.306;20.448;2024-02-16T09:10:37;256.80;2252.80
57030;DHT22;42920;45.306;20.448;2024-02-16T09:13:02;256.90;2252.80
57030;DHT22;42920;45.306;20.448;2024-02-16T09:15:28;281.60;2278.40
57030;DHT22;42920;45.306;20.448;2024-02-16T09:17:53;281.80;2278.40
57030;DHT22;42920;45.306;20.448;2024-02-16T09:20:19;281.80;2278.40
57030;DHT22;42920;45.306;20.448;2024-02-16T09:22:48;282.00;2278.40
57030;DHT22;42920;45.306;20.448;2024-02-16T09:25:14;282.10;2278.40
57030;DHT22;42920;45.306;20.448;2024-02-16T09:27:40;282.10;2278.40
57030;DHT22;42920;45.306;20.448;2024-02-16T09:30:07;282.40;2278.40
57030;DHT22;42920;45.306;20.448;2024-02-16T09:32:36;282.50;2278.40
57030;DHT22;42920;45.306;20.448;2024-02-16T09:35:04;307.30;2304.00
57030;DHT22;42920;45.306;20.448;2024-02-16T09:37:30;307.30;2304.00
57030;DHT22;42920;45.306;20.448;2024-02-16T09:39:55;307.60;2304.00
57030;DHT22;42920;45.306;20.448;2024-02-16T09:42:22;307.90;2227.20
57030;DHT22;42920;45.306;20.448;2024-02-16T09:44:49;332.90;2252.80
57030;DHT22;42920;45.306;20.448;2024-02-16T09:47:16;333.10;2176.00
57030;DHT22;42920;45.306;20.448;2024-02-16T09:49:45;333.40;2099.20
57030;DHT22;42920;45.306;20.448;2024-02-16T09:52:10;333.40;2073.60
57030;DHT22;42920;45.306;20.448;2024-02-16T09:54:37;333.50;1971.20
57030;DHT22;42920;45.306;20.448;2024-02-16T09:57:04;358.50;1945.60
57030;DHT22;42920;45.306;20.448;2024-02-16T09:59:30;358.60;1920.00
57030;DHT22;42920;45.306;20.448;2024-02-16T10:02:01;358.90;1894.40
57030;DHT22;42920;45.306;20.448;2024-02-16T10:04:26;384.00;1766.40
57030;DHT22;42920;45.306;20.448;2024-02-16T10:06:52;384.10;1766.40
57030;DHT22;42920;45.306;20.448;2024-02-16T10:09:21;384.40;1766.40
57030;DHT22;42920;45.306;20.448;2024-02-16T10:11:47;384.70;1689.60
57030;DHT22;42920;45.306;20.448;2024-02-16T10:14:13;384.90;1689.60
57030;DHT22;42920;45.306;20.448;2024-02-16T10:16:39;409.90;1689.60
57030;DHT22;42920;45.306;20.448;2024-02-16T10:19:07;410.00;1664.00
57030;DHT22;42920;45.306;20.448;2024-02-16T10:21:35;409.70;1612.80
57030;DHT22;42920;45.306;20.448;2024-02-16T10:26:30;410.40;1638.40
57030;DHT22;42920;45.306;20.448;2024-02-16T10:29:02;410.10;1587.20
57030;DHT22;42920;45.306;20.448;2024-02-16T10:31:28;409.90;1587.20
57030;DHT22;42920;45.306;20.448;2024-02-16T10:34:14;435.30;1561.60
57030;DHT22;42920;45.306;20.448;2024-02-16T10:36:41;435.60;1536.00
57030;DHT22;42920;45.306;20.448;2024-02-16T10:39:07;435.80;1510.40
57030;DHT22;42920;45.306;20.448;2024-02-16T10:41:42;435.30;1484.80
57030;DHT22;42920;45.306;20.448;2024-02-16T10:44:09;435.20;1484.80
57030;DHT22;42920;45.306;20.448;2024-02-16T10:46:35;435.50;1484.80
57030;DHT22;42920;45.306;20.448;2024-02-16T10:49:01;435.80;1459.20
57030;DHT22;42920;45.306;20.448;2024-02-16T10:51:31;435.80;1484.80
57030;DHT22;42920;45.306;20.448;2024-02-16T10:53:59;435.90;1484.80
57030;DHT22;42920;45.306;20.448;2024-02-16T10:56:31;435.60;1459.20
57030;DHT22;42920;45.306;20.448;2024-02-16T10:59:00;435.90;1433.60
57030;DHT22;42920;45.306;20.448;2024-02-16T11:01:25;436.10;1408.00
57030;DHT22;42920;45.306;20.448;2024-02-16T11:03:59;460.80;1433.60
57030;DHT22;42920;45.306;20.448;2024-02-16T11:06:25;435.70;1382.40
57030;DHT22;42920;45.306;20.448;2024-02-16T11:08:51;461.00;1408.00
57030;DHT22;42920;45.306;20.448;2024-02-16T11:11:23;460.80;1382.40
57030;DHT22;42920;45.306;20.448;2024-02-16T11:13:49;435.90;1331.20
57030;DHT22;42920;45.306;20.448;2024-02-16T11:16:14;460.80;1382.40
57030;DHT22;42920;45.306;20.448;2024-02-16T11:18:45;460.80;1382.40
57030;DHT22;42920;45.306;20.448;2024-02-16T11:21:15;461.20;1382.40
57030;DHT22;42920;45.306;20.448;2024-02-16T11:23:42;461.20;1356.80
57030;DHT22;42920;45.306;20.448;2024-02-16T11:26:10;461.40;1382.40
57030;DHT22;42920;45.306;20.448;2024-02-16T11:28:40;461.40;1331.20
57030;DHT22;42920;45.306;20.448;2024-02-16T11:31:06;461.40;1331.20
57030;DHT22;42920;45.306;20.448;2024-02-16T11:33:35;461.50;1331.20
57030;DHT22;42920;45.306;20.448;2024-02-16T11:36:05;461.50;1305.60
57030;DHT22;42920;45.306;20.448;2024-02-16T11:38:31;461.40;1305.60
57030;DHT22;42920;45.306;20.448;2024-02-16T11:41:05;461.60;1356.80
57030;DHT22;42920;45.306;20.448;2024-02-16T11:43:32;486.50;1305.60
57030;DHT22;42920;45.306;20.448;2024-02-16T11:45:58;486.40;1305.60
57030;DHT22;42920;45.306;20.448;2024-02-16T11:48:27;486.40;1280.00
57030;DHT22;42920;45.306;20.448;2024-02-16T11:51:00;486.40;1305.60
57030;DHT22;42920;45.306;20.448;2024-02-16T11:53:27;486.70;1305.60
57030;DHT22;42920;45.306;20.448;2024-02-16T11:55:53;486.70;1280.00
57030;DHT22;42920;45.306;20.448;2024-02-16T11:58:18;486.70;1254.40
57030;DHT22;42920;45.306;20.448;2024-02-16T12:00:45;487.10;1254.40
57030;DHT22;42920;45.306;20.448;2024-02-16T12:03:11;486.70;1280.00
57030;DHT22;42920;45.306;20.448;2024-02-16T12:05:37;486.40;1228.80
57030;DHT22;42920;45.306;20.448;2024-02-16T12:08:03;461.70;1280.00
57030;DHT22;42920;45.306;20.448;2024-02-16T12:10:28;461.10;1280.00
57030;DHT22;42920;45.306;20.448;2024-02-16T12:12:54;461.20;1331.20
57030;DHT22;42920;45.306;20.448;2024-02-16T12:15:21;461.70;1254.40
57030;DHT22;42920;45.306;20.448;2024-02-16T12:17:46;486.50;1254.40
57030;DHT22;42920;45.306;20.448;2024-02-16T12:20:12;461.20;1305.60
57030;DHT22;42920;45.306;20.448;2024-02-16T12:22:41;461.20;1280.00
57030;DHT22;42920;45.306;20.448;2024-02-16T12:25:06;461.60;1254.40
57030;DHT22;42920;45.306;20.448;2024-02-16T12:27:32;461.30;1280.00
57030;DHT22;42920;45.306;20.448;2024-02-16T12:29:59;461.40;1280.00
57030;DHT22;42920;45.306;20.448;2024-02-16T12:32:24;461.40;1280.00
57030;DHT22;42920;45.306;20.448;2024-02-16T12:34:50;461.20;1280.00
57030;DHT22;42920;45.306;20.448;2024-02-16T12:37:16;461.10;1254.40
57030;DHT22;42920;45.306;20.448;2024-02-16T12:39:43;461.10;1254.40
57030;DHT22;42920;45.306;20.448;2024-02-16T12:42:10;461.00;1280.00
57030;DHT22;42920;45.306;20.448;2024-02-16T12:44:37;461.10;1305.60
57030;DHT22;42920;45.306;20.448;2024-02-16T12:47:03;461.20;1305.60
57030;DHT22;42920;45.306;20.448;2024-02-16T12:49:28;461.50;1280.00
57030;DHT22;42920;45.306;20.448;2024-02-16T12:51:54;461.40;1280.00
57030;DHT22;42920;45.306;20.448;2024-02-16T12:54:20;461.30;1254.40
57030;DHT22;42920;45.306;20.448;2024-02-16T12:56:46;461.20;1254.40
57030;DHT22;42920;45.306;20.448;2024-02-16T12:59:11;461.10;1280.00
57030;DHT22;42920;45.306;20.448;2024-02-16T13:01:37;461.20;1254.40
57030;DHT22;42920;45.306;20.448;2024-02-16T13:04:03;460.90;1280.00
57030;DHT22;42920;45.306;20.448;2024-02-16T13:06:29;460.90;1305.60
57030;DHT22;42920;45.306;20.448;2024-02-16T13:08:55;461.00;1305.60
57030;DHT22;42920;45.306;20.448;2024-02-16T13:11:21;461.00;1280.00
57030;DHT22;42920;45.306;20.448;2024-02-16T13:13:46;460.80;1280.00
57030;DHT22;42920;45.306;20.448;2024-02-16T13:16:12;436.10;1305.60
57030;DHT22;42920;45.306;20.448;2024-02-16T13:18:37;435.90;1280.00
57030;DHT22;42920;45.306;20.448;2024-02-16T13:21:03;435.70;1305.60
57030;DHT22;42920;45.306;20.448;2024-02-16T13:23:29;435.50;1305.60
57030;DHT22;42920;45.306;20.448;2024-02-16T13:25:56;435.50;1305.60
57030;DHT22;42920;45.306;20.448;2024-02-16T13:28:22;435.50;1331.20
57030;DHT22;42920;45.306;20.448;2024-02-16T13:30:47;435.60;1356.80
57030;DHT22;42920;45.306;20.448;2024-02-16T13:33:13;435.40;1305.60
57030;DHT22;42920;45.306;20.448;2024-02-16T13:35:38;435.30;1280.00
57030;DHT22;42920;45.306;20.448;2024-02-16T13:38:04;435.20;1305.60
57030;DHT22;42920;45.306;20.448;2024-02-16T13:40:30;435.20;1331.20
57030;DHT22;42920;45.306;20.448;2024-02-16T13:42:55;435.20;1331.20
57030;DHT22;42920;45.306;20.448;2024-02-16T13:45:27;410.50;1305.60
57030;DHT22;42920;45.306;20.448;2024-02-16T13:47:53;410.30;1331.20
57030;DHT22;42920;45.306;20.448;2024-02-16T13:50:18;410.30;1331.20
57030;DHT22;42920;45.306;20.448;2024-02-16T13:52:44;410.30;1356.80
57030;DHT22;42920;45.306;20.448;2024-02-16T13:55:10;410.30;1356.80
57030;DHT22;42920;45.306;20.448;2024-02-16T13:57:36;410.20;1356.80
57030;DHT22;42920;45.306;20.448;2024-02-16T14:00:04;410.20;1331.20
57030;DHT22;42920;45.306;20.448;2024-02-16T14:02:30;410.10;1356.80
57030;DHT22;42920;45.306;20.448;2024-02-16T14:04:56;409.80;1356.80
57030;DHT22;42920;45.306;20.448;2024-02-16T14:07:22;409.70;1356.80
57030;DHT22;42920;45.306;20.448;2024-02-16T14:09:47;409.70;1356.80
57030;DHT22;42920;45.306;20.448;2024-02-16T14:12:13;409.70;1331.20
57030;DHT22;42920;45.306;20.448;2024-02-16T14:14:39;384.90;1280.00
57030;DHT22;42920;45.306;20.448;2024-02-16T14:17:04;384.90;1305.60
57030;DHT22;42920;45.306;20.448;2024-02-16T14:19:30;384.90;1331.20
57030;DHT22;42920;45.306;20.448;2024-02-16T14:21:55;384.80;1331.20
57030;DHT22;42920;45.306;20.448;2024-02-16T14:24:21;384.90;1356.80
57030;DHT22;42920;45.306;20.448;2024-02-16T14:26:47;384.70;1356.80
57030;DHT22;42920;45.306;20.448;2024-02-16T14:29:13;384.70;1356.80
57030;DHT22;42920;45.306;20.448;2024-02-16T14:31:38;384.80;1382.40
57030;DHT22;42920;45.306;20.448;2024-02-16T14:34:04;384.80;1356.80
57030;DHT22;42920;45.306;20.448;2024-02-16T14:36:29;384.80;1356.80
57030;DHT22;42920;45.306;20.448;2024-02-16T14:38:55;384.70;1356.80
57030;DHT22;42920;45.306;20.448;2024-02-16T14:41:21;384.70;1331.20